Kremmling, CO

4:17 PM MST on December 09, 2016 (GMT -0700)
Kremmling | | Change Station

Elev 7411 ft 40.05 °N, 106.37 °W | Updated 22 minutes ago

Overcast
Overcast
41 °F
Feels Like 36 °F
N
8
Wind Variable Wind from WSW

Today
High -- | Low -- °F
--% Chance of Precip.
Yesterday
High -- | Low -- °F
Precip. -- in
Pressure 30.21 in
Visibility 10.0 miles
Clouds Scattered Clouds 2700 ft
Mostly Cloudy 3900 ft
Overcast 7500 ft
Windchill 36 °F
Dew Point 30 °F
Humidity 65%
Rainfall 0.05 in
Snow Depth Not available.
7:16 AM 4:39 PM
Waxing Gibbous, 78% visible
METAR K20V 092255Z AUTO 24007KT 10SM SCT027 BKN039 OVC075 05/M01 A3021 RMK AO2
Pressure 30.21 in
Visibility 10.0 miles
Clouds Scattered Clouds 2700 ft
Mostly Cloudy 3900 ft
Overcast 7500 ft
Windchill 36 °F
Dew Point 30 °F
Humidity 65%
Rainfall 0.05 in
Snow Depth Not available.
7:16 AM 4:39 PM
Waxing Gibbous, 78% visible
METAR K20V 092255Z AUTO 24007KT 10SM SCT027 BKN039 OVC075 05/M01 A3021 RMK AO2

10-Day Weather Forecast

Almanac

Astronomy

Dec. 09, 2016 Rise Set
Actual Time
Civil Twilight
Nautical Twilight
Astronomical Twilight
Moon
Length of Visible Light
Length of Day
Tomorrow will be .
, % of the Moon is Illuminated

Today's Extremes

State Highs State Lows

Community

WunderPhotos

Upload Photos

1,956,535 photos uploaded!

WunderBlog® & News

Nearby

Air Quality

  Air Quality AQ Index Pollutant
Not available.

Snow Depth

Station Depth Elevation

Earthquake Activity

City Distance Mag. Time & Date
Minimum magnitude displayed is 2.5.

Coastal Water Temperatures

Place Temperature

Stations

Nearby Weather Stations

Station Location Temp. Windchill Dew Point Humidity Wind Precip. Elev Updated Type
                   

Watches & Warnings

There are currently no watches in effect.